Time;durP1;ratioP1;P1;durP2;ratioP2;P2;SDS_P1;SDS_P2;PMS_P1;PMS_P2;Temp;Humidity;BMP_temperature;BMP_pressure;BME280_temperature;BME280_humidity;BME280_pressure;Samples;Min_cycle;Max_cycle;Signal;HPM_P1;HPM_P2
2021/12/04 00:01:07;;;;;;;810.00;751.10;;;4.20;99.90;;;;;;4882573;29;20863;-83
2021/12/04 00:03:33;;;;;;;794.73;737.03;;;4.10;99.90;;;;;;4877019;29;20547;-83
2021/12/04 00:06:06;;;;;;;801.70;742.80;;;4.10;99.90;;;;;;4863405;29;20460;-83
2021/12/04 00:08:35;;;;;;;803.10;744.60;;;4.10;99.90;;;;;;4863396;29;20480;-84
2021/12/04 00:11:02;;;;;;;814.73;754.80;;;4.10;99.90;;;;;;4863580;29;20522;-83
2021/12/04 00:13:29;;;;;;;814.03;754.57;;;4.10;99.90;;;;;;4862596;29;20507;-83
2021/12/04 00:15:55;;;;;;;809.80;751.90;;;4.10;99.90;;;;;;4861599;29;20484;-84
2021/12/04 00:18:22;;;;;;;810.43;752.70;;;4.10;99.90;;;;;;4864250;29;20838;-84
2021/12/04 00:20:49;;;;;;;807.87;749.80;;;4.20;99.90;;;;;;4862887;29;20484;-84
2021/12/04 00:23:17;;;;;;;812.53;755.07;;;4.10;99.90;;;;;;4862299;29;20471;-84
2021/12/04 00:25:44;;;;;;;802.13;745.23;;;4.10;99.90;;;;;;4862278;29;20461;-84
2021/12/04 00:28:11;;;;;;;804.73;748.47;;;4.10;99.90;;;;;;4862366;29;20488;-83
2021/12/04 00:30:37;;;;;;;806.97;749.57;;;4.10;99.90;;;;;;4862859;29;20975;-84
2021/12/04 00:33:08;;;;;;;797.80;740.93;;;4.10;99.90;;;;;;4863688;29;20472;-83
2021/12/04 00:35:42;;;;;;;792.43;735.63;;;4.10;99.90;;;;;;4863193;29;20464;-84
2021/12/04 00:49:11;;;;;;;792.70;736.20;;;4.10;99.90;;;;;;4862418;29;20577;-84
2021/12/04 00:51:41;;;;;;;793.53;737.63;;;4.20;99.90;;;;;;4862431;29;20456;-83
2021/12/04 00:54:10;;;;;;;797.47;741.67;;;4.10;99.90;;;;;;4861240;29;20457;-84
2021/12/04 00:56:39;;;;;;;802.87;747.10;;;4.20;99.90;;;;;;4861280;29;21030;-84
2021/12/04 00:59:06;;;;;;;802.60;747.27;;;4.20;99.90;;;;;;4860577;29;20473;-84
2021/12/04 01:01:33;;;;;;;787.43;732.80;;;4.20;99.90;;;;;;4861176;29;20488;-84
2021/12/04 01:04:00;;;;;;;790.33;736.40;;;4.20;99.90;;;;;;4869366;29;20460;-83
2021/12/04 01:06:27;;;;;;;779.63;726.90;;;4.20;99.90;;;;;;4878952;29;20470;-83
2021/12/04 01:08:54;;;;;;;778.37;727.00;;;4.30;99.90;;;;;;4875514;29;20484;-84
2021/12/04 01:11:21;;;;;;;784.57;733.87;;;4.30;99.90;;;;;;4869422;29;20467;-84
2021/12/04 01:13:49;;;;;;;772.47;723.30;;;4.20;99.90;;;;;;4861569;29;20467;-84
2021/12/04 01:16:16;;;;;;;767.90;719.27;;;4.30;99.90;;;;;;4861261;29;20467;-83
2021/12/04 01:18:44;;;;;;;764.93;716.80;;;4.30;99.90;;;;;;4860719;29;20480;-83
2021/12/04 01:21:11;;;;;;;749.63;703.57;;;4.30;99.90;;;;;;4861496;29;20571;-83
2021/12/04 01:23:38;;;;;;;739.73;695.37;;;4.30;99.90;;;;;;4863724;29;20489;-84
2021/12/04 01:26:05;;;;;;;749.83;704.47;;;4.30;99.90;;;;;;4865790;29;20579;-84
2021/12/04 01:28:31;;;;;;;732.47;690.37;;;4.30;99.90;;;;;;4865355;29;20487;-85
2021/12/04 01:30:59;;;;;;;714.20;675.33;;;4.40;99.90;;;;;;4865177;29;20459;-84
2021/12/04 01:33:27;;;;;;;714.13;674.63;;;4.30;99.90;;;;;;4864376;29;20468;-84
2021/12/04 01:35:54;;;;;;;702.80;664.70;;;4.40;99.90;;;;;;4864380;29;20468;-85
2021/12/04 01:38:21;;;;;;;689.67;653.60;;;4.40;99.90;;;;;;4865118;29;20480;-84
2021/12/04 01:40:48;;;;;;;689.23;653.47;;;4.40;99.90;;;;;;4866732;29;20464;-85
2021/12/04 01:43:15;;;;;;;682.13;647.37;;;4.40;99.90;;;;;;4864704;29;20460;-83
2021/12/04 01:45:41;;;;;;;686.70;651.57;;;4.40;99.90;;;;;;4864883;29;20467;-83
2021/12/04 01:48:09;;;;;;;694.80;658.50;;;4.40;99.90;;;;;;4865619;29;20487;-84
2021/12/04 01:50:37;;;;;;;696.87;660.87;;;4.40;99.90;;;;;;4864912;29;20456;-83
2021/12/04 01:53:04;;;;;;;700.80;663.07;;;4.40;99.90;;;;;;4865440;29;20464;-84
2021/12/04 01:55:32;;;;;;;705.70;667.33;;;4.40;99.90;;;;;;4864838;29;20843;-84
2021/12/04 01:58:00;;;;;;;720.33;680.40;;;4.40;99.90;;;;;;4865642;29;20483;-83
2021/12/04 02:00:28;;;;;;;719.33;678.37;;;4.40;99.90;;;;;;4864172;29;20517;-83
2021/12/04 02:02:54;;;;;;;726.33;684.87;;;4.40;99.90;;;;;;4864086;29;20511;-83
2021/12/04 02:05:22;;;;;;;737.63;694.53;;;4.40;99.90;;;;;;4864593;29;20463;-83
2021/12/04 02:07:49;;;;;;;753.07;706.77;;;4.40;99.90;;;;;;4865647;29;20480;-83
2021/12/04 02:10:16;;;;;;;765.13;716.50;;;4.30;99.90;;;;;;4864011;29;20812;-83
2021/12/04 02:12:43;;;;;;;759.43;710.40;;;4.30;99.90;;;;;;4863529;29;20464;-83
2021/12/04 02:15:13;;;;;;;764.27;714.67;;;4.30;99.90;;;;;;4863312;29;20461;-83
2021/12/04 02:17:40;;;;;;;776.67;727.70;;;4.30;99.90;;;;;;4863669;29;20483;-83
2021/12/04 02:20:16;;;;;;;781.97;731.00;;;4.30;99.90;;;;;;4863375;29;20461;-82
2021/12/04 02:22:43;;;;;;;768.40;717.00;;;4.30;99.90;;;;;;4862601;29;20491;-82
2021/12/04 02:25:10;;;;;;;764.43;708.80;;;4.30;99.90;;;;;;4862531;29;20466;-81
2021/12/04 02:27:38;;;;;;;766.50;708.77;;;4.30;99.90;;;;;;4862618;29;20485;-81
2021/12/04 02:30:08;;;;;;;757.90;700.40;;;4.20;99.90;;;;;;4862208;29;21158;-82
2021/12/04 02:32:35;;;;;;;774.70;716.90;;;4.20;99.90;;;;;;4862240;29;20975;-83
2021/12/04 02:35:01;;;;;;;765.63;706.63;;;4.30;99.90;;;;;;4861388;29;20467;-82
2021/12/04 02:37:30;;;;;;;767.00;706.30;;;4.20;99.90;;;;;;4861972;29;20489;-82
2021/12/04 02:39:59;;;;;;;764.40;701.50;;;4.20;99.90;;;;;;4861756;29;20954;-82
2021/12/04 02:42:29;;;;;;;764.13;699.80;;;4.20;99.90;;;;;;4861800;29;20485;-82
2021/12/04 02:44:57;;;;;;;766.40;701.30;;;4.20;99.90;;;;;;4861968;29;20461;-81
2021/12/04 02:47:24;;;;;;;768.83;702.40;;;4.20;99.90;;;;;;4861687;29;20484;-82
2021/12/04 02:49:50;;;;;;;759.13;692.10;;;4.20;99.90;;;;;;4861688;29;20472;-82
2021/12/04 02:52:18;;;;;;;757.83;689.80;;;4.10;99.90;;;;;;4862049;29;20463;-82
2021/12/04 02:54:47;;;;;;;750.93;683.47;;;4.20;99.90;;;;;;4861775;29;20914;-81
2021/12/04 02:57:16;;;;;;;759.17;690.53;;;4.20;99.90;;;;;;4861716;29;20860;-82
2021/12/04 02:59:44;;;;;;;759.60;689.77;;;4.10;99.90;;;;;;4861535;29;20472;-82
2021/12/04 03:02:17;;;;;;;763.63;694.17;;;4.20;99.90;;;;;;4862137;29;20575;-83
2021/12/04 03:04:44;;;;;;;760.17;690.20;;;4.20;99.90;;;;;;4864067;29;20508;-83
2021/12/04 03:07:11;;;;;;;766.33;696.10;;;4.10;99.90;;;;;;4863304;29;20476;-83
2021/12/04 03:09:38;;;;;;;771.10;699.60;;;4.10;99.90;;;;;;4863565;29;20469;-82
2021/12/04 03:12:08;;;;;;;759.80;688.70;;;4.10;99.90;;;;;;4865690;29;20464;-84
2021/12/04 03:14:35;;;;;;;753.03;682.03;;;4.10;99.90;;;;;;4866269;29;20966;-84
2021/12/04 03:17:02;;;;;;;753.37;681.57;;;4.10;99.90;;;;;;4869086;29;20480;-84
2021/12/04 03:19:29;;;;;;;764.67;692.10;;;4.00;99.90;;;;;;4866497;29;20470;-83
2021/12/04 03:21:56;;;;;;;782.97;710.23;;;4.10;99.90;;;;;;4866455;29;20488;-83
2021/12/04 03:24:24;;;;;;;760.20;688.50;;;4.10;99.90;;;;;;4865899;29;20518;-83
2021/12/04 03:26:52;;;;;;;769.47;697.87;;;4.10;99.90;;;;;;4866038;29;20460;-83
2021/12/04 03:29:22;;;;;;;773.40;701.80;;;4.10;99.90;;;;;;4863940;29;20493;-83
2021/12/04 03:32:23;;;;;;;777.10;704.70;;;4.00;99.90;;;;;;4863270;29;20460;-83
2021/12/04 03:40:51;;;;;;;785.43;713.73;;;4.00;99.90;;;;;;4823614;29;20516;-83
2021/12/04 03:43:18;;;;;;;780.63;708.80;;;4.00;99.90;;;;;;4858896;29;20548;-83
2021/12/04 03:45:47;;;;;;;765.43;693.33;;;4.00;99.90;;;;;;4862268;29;20888;-85
2021/12/04 03:48:28;;;;;;;774.83;702.00;;;4.00;99.90;;;;;;4862632;29;20487;-83
2021/12/04 03:50:55;;;;;;;772.83;699.83;;;3.90;99.90;;;;;;4862300;29;20524;-83
2021/12/04 03:53:22;;;;;;;767.33;693.57;;;3.90;99.90;;;;;;4861977;29;20882;-83
2021/12/04 03:55:49;;;;;;;771.83;698.73;;;4.00;99.90;;;;;;4861369;29;20468;-84
2021/12/04 03:58:16;;;;;;;778.03;704.07;;;4.00;99.90;;;;;;4861587;29;20484;-84
2021/12/04 04:00:43;;;;;;;779.50;704.60;;;3.90;99.90;;;;;;4862239;29;20986;-83
2021/12/04 04:03:12;;;;;;;788.47;712.20;;;4.00;99.90;;;;;;4861450;29;20499;-83
2021/12/04 04:05:38;;;;;;;795.80;720.03;;;4.00;99.90;;;;;;4861873;29;20483;-83
2021/12/04 04:08:05;;;;;;;786.83;711.43;;;4.00;99.90;;;;;;4861413;29;20487;-83
2021/12/04 04:10:32;;;;;;;790.07;714.27;;;4.00;99.90;;;;;;4866857;29;20483;-83
2021/12/04 04:12:59;;;;;;;802.00;726.60;;;4.10;99.90;;;;;;4873601;29;20459;-84
2021/12/04 04:15:26;;;;;;;796.40;720.60;;;4.00;99.90;;;;;;4879582;29;20522;-83
2021/12/04 04:17:53;;;;;;;792.30;716.40;;;4.00;99.90;;;;;;4861396;29;20863;-83
2021/12/04 04:20:22;;;;;;;804.00;728.10;;;4.10;99.90;;;;;;4863293;29;20950;-84
2021/12/04 04:22:50;;;;;;;803.83;728.47;;;4.00;99.90;;;;;;4861844;29;20480;-83
2021/12/04 04:25:18;;;;;;;813.03;736.93;;;4.10;99.90;;;;;;4863510;29;20479;-84
2021/12/04 04:27:45;;;;;;;819.10;742.93;;;4.10;99.90;;;;;;4862378;29;20484;-84
2021/12/04 04:30:15;;;;;;;819.77;744.67;;;4.10;99.90;;;;;;4881721;29;20467;-82
2021/12/04 04:32:43;;;;;;;823.57;747.07;;;4.10;99.90;;;;;;4881458;29;20456;-83
2021/12/04 04:35:13;;;;;;;823.20;747.00;;;4.10;99.90;;;;;;4882365;29;20459;-83
2021/12/04 04:37:48;;;;;;;821.03;744.83;;;4.00;99.90;;;;;;4884191;29;20526;-84
2021/12/04 04:59:31;;;;;;;797.10;721.93;;;4.00;99.90;;;;;;4874452;29;20455;-84
2021/12/04 05:02:21;;;;;;;793.47;718.30;;;4.00;99.90;;;;;;4865088;29;21031;-83
2021/12/04 05:10:51;;;;;;;805.67;728.90;;;3.90;99.90;;;;;;4883398;29;20446;-84
2021/12/04 05:13:18;;;;;;;799.87;723.70;;;3.90;99.90;;;;;;4885025;29;20920;-84
2021/12/04 05:15:56;;;;;;;794.97;719.27;;;4.00;99.90;;;;;;4885024;29;20455;-83
2021/12/04 05:18:32;;;;;;;795.23;720.27;;;4.00;99.90;;;;;;4884591;29;20486;-83
2021/12/04 05:21:05;;;;;;;778.63;702.67;;;3.90;99.90;;;;;;4885765;29;20455;-83
2021/12/04 05:23:34;;;;;;;780.70;705.53;;;4.00;99.90;;;;;;4884323;29;20471;-84
2021/12/04 05:26:07;;;;;;;790.77;713.80;;;3.90;99.90;;;;;;4885125;29;20463;-84
2021/12/04 05:28:38;;;;;;;784.57;709.10;;;4.00;99.90;;;;;;4883476;29;20535;-82
2021/12/04 05:31:04;;;;;;;810.87;733.43;;;3.90;99.90;;;;;;4884607;29;20464;-84
2021/12/04 05:33:31;;;;;;;779.87;703.30;;;3.90;99.90;;;;;;4883818;29;20467;-83
2021/12/04 05:35:58;;;;;;;780.97;705.17;;;4.00;99.90;;;;;;4884449;29;20458;-83
2021/12/04 05:38:26;;;;;;;781.13;705.60;;;4.00;99.90;;;;;;4884078;29;20483;-83
2021/12/04 05:40:53;;;;;;;779.63;704.03;;;4.00;99.90;;;;;;4885079;29;20451;-83
2021/12/04 05:43:23;;;;;;;791.80;715.63;;;4.00;99.90;;;;;;4883176;29;20942;-83
2021/12/04 05:45:56;;;;;;;793.23;717.50;;;4.10;99.90;;;;;;4883883;29;20546;-84
2021/12/04 05:48:30;;;;;;;791.23;715.30;;;4.00;99.90;;;;;;4884225;29;20483;-84
2021/12/04 05:51:15;;;;;;;786.97;711.90;;;4.10;99.90;;;;;;4884947;29;20514;-83
2021/12/04 05:53:55;;;;;;;774.40;699.73;;;4.00;99.90;;;;;;4885151;29;20467;-83
2021/12/04 05:56:24;;;;;;;783.97;709.47;;;4.00;99.90;;;;;;4883823;29;20466;-86
2021/12/04 05:58:52;;;;;;;786.80;712.20;;;4.00;99.90;;;;;;4883078;29;21043;-84
2021/12/04 06:01:21;;;;;;;793.87;718.67;;;4.00;99.90;;;;;;4882919;29;20463;-83
2021/12/04 06:03:49;;;;;;;792.37;717.57;;;4.00;99.90;;;;;;4885566;29;20487;-85
2021/12/04 06:06:17;;;;;;;795.57;720.17;;;4.00;99.90;;;;;;4868601;29;20453;-84
2021/12/04 06:08:45;;;;;;;792.07;716.27;;;4.00;99.90;;;;;;4865441;29;20549;-84
2021/12/04 06:11:12;;;;;;;787.30;713.00;;;4.10;99.90;;;;;;4863109;29;20517;-83
2021/12/04 06:13:41;;;;;;;792.90;717.90;;;4.00;99.90;;;;;;4864086;29;20468;-87
2021/12/04 06:16:10;;;;;;;805.67;727.70;;;4.00;99.90;;;;;;4861885;29;20475;-84
2021/12/04 06:18:37;;;;;;;781.77;710.67;;;4.00;99.90;;;;;;4863838;29;20223;-84
2021/12/04 06:23:48;;;;;;;786.03;713.80;;;4.10;99.90;;;;;;4862884;29;20482;-84
2021/12/04 06:26:15;;;;;;;782.03;710.07;;;4.10;99.90;;;;;;4862069;29;20487;-85
2021/12/04 06:28:42;;;;;;;784.00;711.90;;;4.20;99.90;;;;;;4863036;29;20508;-84
2021/12/04 06:31:11;;;;;;;776.97;704.70;;;4.10;99.90;;;;;;4863051;29;21032;-84
2021/12/04 06:33:39;;;;;;;768.93;695.53;;;4.00;99.90;;;;;;4862583;29;20484;-84
2021/12/04 06:36:08;;;;;;;771.10;698.70;;;4.10;99.90;;;;;;4862827;29;20496;-86
2021/12/04 06:38:35;;;;;;;776.80;703.77;;;4.10;99.90;;;;;;4864437;29;20489;-85
2021/12/04 06:41:03;;;;;;;774.70;702.00;;;4.10;99.90;;;;;;4868818;29;20483;-84
2021/12/04 06:43:30;;;;;;;778.50;704.50;;;4.10;99.90;;;;;;4865598;29;21039;-83
2021/12/04 06:46:03;;;;;;;783.17;709.50;;;4.10;99.90;;;;;;4865254;29;20914;-84
2021/12/04 06:48:38;;;;;;;788.13;713.97;;;4.10;99.90;;;;;;4863546;29;20481;-84
2021/12/04 06:51:10;;;;;;;788.93;715.47;;;4.10;99.90;;;;;;4864466;29;20497;-85
2021/12/04 06:53:41;;;;;;;787.93;713.33;;;4.10;99.90;;;;;;4863953;29;20824;-85
2021/12/04 06:56:11;;;;;;;775.40;701.90;;;4.00;99.90;;;;;;4862902;29;20464;-84
2021/12/04 06:58:38;;;;;;;768.77;695.53;;;4.00;99.90;;;;;;4862093;29;20527;-83
2021/12/04 07:01:05;;;;;;;770.37;697.17;;;4.10;99.90;;;;;;4862551;29;20467;-83
2021/12/04 07:03:33;;;;;;;779.10;706.20;;;4.10;99.90;;;;;;4863975;29;20480;-83
2021/12/04 07:06:01;;;;;;;769.03;696.17;;;4.10;99.90;;;;;;4875761;29;20455;-83
2021/12/04 07:08:27;;;;;;;775.90;703.20;;;4.10;99.90;;;;;;4882433;29;20532;-83
2021/12/04 07:11:00;;;;;;;773.63;700.90;;;4.10;99.90;;;;;;4871175;29;21036;-83
2021/12/04 07:13:27;;;;;;;776.17;703.17;;;4.20;99.90;;;;;;4882045;29;20515;-84
2021/12/04 07:16:01;;;;;;;776.90;704.07;;;4.20;99.90;;;;;;4882316;29;20491;-84
2021/12/04 07:18:31;;;;;;;781.47;708.83;;;4.20;99.90;;;;;;4880801;29;20486;-83
2021/12/04 07:21:02;;;;;;;785.07;711.87;;;4.20;99.90;;;;;;4880083;29;20538;-83
2021/12/04 07:23:29;;;;;;;790.47;716.60;;;4.10;99.90;;;;;;4879786;29;21052;-83
2021/12/04 07:25:58;;;;;;;791.93;718.23;;;4.20;99.90;;;;;;4879559;29;20463;-83
2021/12/04 07:28:25;;;;;;;812.40;738.80;;;4.20;99.90;;;;;;4879432;29;20483;-84
2021/12/04 07:30:53;;;;;;;799.97;726.63;;;4.10;99.90;;;;;;4879362;29;20472;-83
2021/12/04 07:33:20;;;;;;;796.63;723.13;;;4.20;99.90;;;;;;4879470;29;20554;-83
2021/12/04 07:35:47;;;;;;;791.27;718.40;;;4.20;99.90;;;;;;4879287;29;20471;-83
2021/12/04 07:38:15;;;;;;;782.90;709.90;;;4.10;99.90;;;;;;4879710;29;20484;-83
2021/12/04 07:40:44;;;;;;;783.07;709.47;;;4.10;99.90;;;;;;4879408;29;20463;-83
2021/12/04 07:43:11;;;;;;;796.43;722.77;;;4.20;99.90;;;;;;4879340;29;20486;-83
2021/12/04 07:45:38;;;;;;;779.27;705.77;;;4.20;99.90;;;;;;4879088;29;20471;-83
2021/12/04 07:48:05;;;;;;;781.40;707.97;;;4.20;99.90;;;;;;4879282;29;20495;-82
2021/12/04 07:50:33;;;;;;;766.03;693.83;;;4.30;99.90;;;;;;4879114;29;20451;-83
2021/12/04 07:53:00;;;;;;;763.77;691.60;;;4.20;99.90;;;;;;4879146;29;20470;-83
2021/12/04 07:55:31;;;;;;;773.70;701.27;;;4.20;99.90;;;;;;4878895;29;20464;-84
2021/12/04 07:57:59;;;;;;;779.23;706.60;;;4.20;99.90;;;;;;4879433;29;20953;-83
2021/12/04 08:00:28;;;;;;;777.23;704.33;;;4.20;99.90;;;;;;4879210;29;20463;-83
2021/12/04 08:03:01;;;;;;;781.53;708.37;;;4.20;99.90;;;;;;4878704;29;20487;-83
2021/12/04 08:05:28;;;;;;;773.57;700.03;;;4.30;99.90;;;;;;4868429;29;20468;-83
2021/12/04 08:07:56;;;;;;;780.07;706.37;;;4.20;99.90;;;;;;4860619;29;20480;-83
2021/12/04 08:10:24;;;;;;;775.23;701.57;;;4.20;99.90;;;;;;4860241;29;20491;-84
2021/12/04 08:12:52;;;;;;;769.40;696.27;;;4.30;99.90;;;;;;4860183;29;20540;-84
2021/12/04 08:15:20;;;;;;;772.90;700.20;;;4.30;99.90;;;;;;4860241;29;20475;-83
2021/12/04 08:17:51;;;;;;;777.50;705.30;;;4.40;99.90;;;;;;4860227;29;20484;-84
2021/12/04 08:20:50;;;;;;;768.27;695.77;;;4.40;99.90;;;;;;4860223;29;20846;-83
2021/12/04 08:23:30;;;;;;;771.03;698.53;;;4.30;99.90;;;;;;4851790;29;20584;-84
2021/12/04 08:29:07;;;;;;;772.37;700.00;;;4.40;99.90;;;;;;4853202;29;20486;-84
2021/12/04 08:34:15;;;;;;;776.37;705.40;;;4.50;99.90;;;;;;4841805;29;20471;-85
2021/12/04 08:37:16;;;;;;;776.57;706.17;;;4.50;99.90;;;;;;4859519;29;20464;-85
2021/12/04 08:46:35;;;;;;;779.30;709.60;;;4.50;99.90;;;;;;4764122;29;20454;-85
2021/12/04 08:49:03;;;;;;;789.10;719.50;;;4.60;99.90;;;;;;4863372;29;20515;-86
2021/12/04 08:51:30;;;;;;;790.17;720.27;;;4.50;99.90;;;;;;4877885;29;20462;-86
2021/12/04 08:53:56;;;;;;;790.43;720.90;;;4.60;99.90;;;;;;4876990;29;20531;-85
2021/12/04 08:56:23;;;;;;;783.50;716.27;;;4.60;99.90;;;;;;4877191;29;20488;-85
2021/12/04 08:58:51;;;;;;;785.70;718.70;;;4.60;99.90;;;;;;4869412;29;20853;-86
2021/12/04 09:01:24;;;;;;;781.50;714.70;;;4.70;99.90;;;;;;4859292;29;20467;-85
2021/12/04 09:03:55;;;;;;;781.77;714.90;;;4.70;99.90;;;;;;4859532;29;20472;-85
2021/12/04 09:06:22;;;;;;;780.97;716.77;;;4.80;99.90;;;;;;4875856;29;20468;-86
2021/12/04 09:08:49;;;;;;;792.23;727.63;;;4.70;99.90;;;;;;4877515;29;20475;-82
2021/12/04 09:11:21;;;;;;;789.50;726.30;;;4.70;99.90;;;;;;4878145;29;20470;-86
2021/12/04 09:13:49;;;;;;;785.13;721.37;;;4.80;99.90;;;;;;4877941;29;20459;-85
2021/12/04 09:16:17;;;;;;;788.67;727.40;;;4.80;99.90;;;;;;4877671;29;20846;-86
2021/12/04 09:18:43;;;;;;;790.00;729.43;;;4.80;99.90;;;;;;4877668;29;20588;-85
2021/12/04 09:21:12;;;;;;;790.07;730.37;;;4.90;99.90;;;;;;4877910;29;20961;-86
2021/12/04 09:23:44;;;;;;;784.37;725.40;;;4.90;99.90;;;;;;4877576;29;20498;-85
2021/12/04 09:26:14;;;;;;;788.53;730.53;;;4.90;99.90;;;;;;4877842;29;20589;-85
2021/12/04 09:28:48;;;;;;;796.20;739.00;;;5.00;99.90;;;;;;4877864;29;20483;-86
2021/12/04 09:34:30;;;;;;;799.03;742.50;;;5.00;99.90;;;;;;4838447;29;20482;-86
2021/12/04 09:59:34;;;;;;;760.80;712.23;;;5.70;99.90;;;;;;4880935;29;20502;-85
2021/12/04 10:14:09;;;;;;;698.80;663.97;;;6.00;99.90;;;;;;4870044;29;20467;-85
2021/12/04 10:19:58;;;;;;;572.20;549.27;;;6.30;99.90;;;;;;4840748;29;20877;-85
2021/12/04 10:22:32;;;;;;;446.40;430.73;;;6.30;99.90;;;;;;4840772;29;20465;-85
2021/12/04 10:33:47;;;;;;;223.50;216.07;;;6.70;99.90;;;;;;4879748;29;20822;-84
2021/12/04 10:36:25;;;;;;;192.83;186.43;;;6.70;99.90;;;;;;4879755;29;20467;-84
2021/12/04 10:38:53;;;;;;;264.57;254.87;;;6.60;99.90;;;;;;4879456;29;21080;-85
2021/12/04 10:41:29;;;;;;;190.57;184.03;;;6.60;99.90;;;;;;4880124;29;20877;-86
2021/12/04 10:44:12;;;;;;;242.23;234.13;;;6.50;99.90;;;;;;4880012;29;20570;-86
2021/12/04 10:46:52;;;;;;;308.37;298.17;;;6.40;99.90;;;;;;4879795;29;20828;-87
2021/12/04 10:49:40;;;;;;;441.50;425.52;;;6.20;99.90;;;;;;4878664;29;20556;-85
2021/12/04 10:52:19;;;;;;;368.63;356.33;;;6.30;99.90;;;;;;4879702;29;20211;-85
2021/12/04 10:54:50;;;;;;;289.07;279.77;;;6.40;99.90;;;;;;4880187;29;20521;-85
2021/12/04 10:57:56;;;;;;;387.73;374.93;;;6.40;99.90;;;;;;4879276;29;20503;-85
2021/12/04 11:00:36;;;;;;;324.93;314.50;;;6.50;99.90;;;;;;4879594;29;20455;-85
2021/12/04 11:03:18;;;;;;;345.20;334.17;;;6.50;99.90;;;;;;4879705;29;20471;-85
2021/12/04 11:06:08;;;;;;;286.77;277.67;;;6.50;99.90;;;;;;4879201;29;20447;-84
2021/12/04 11:20:43;;;;;;;310.47;300.63;;;6.40;99.90;;;;;;5049387;28;20804;-82
2021/12/04 11:26:11;;;;;;;325.27;314.93;;;6.30;99.90;;;;;;5015694;28;20962;-84
2021/12/04 11:38:50;;;;;;;173.37;167.53;;;6.40;99.90;;;;;;5048958;28;20455;-84
2021/12/04 11:41:32;;;;;;;191.17;184.90;;;6.40;99.90;;;;;;4956563;28;20954;-85
2021/12/04 11:44:04;;;;;;;224.67;217.50;;;6.40;99.90;;;;;;5024387;28;20454;-85
2021/12/04 11:46:42;;;;;;;169.23;163.53;;;6.40;99.90;;;;;;5048655;28;20455;-85
2021/12/04 11:49:13;;;;;;;152.77;147.47;;;6.40;99.90;;;;;;5048654;28;20436;-84
2021/12/04 11:51:57;;;;;;;107.67;103.50;;;6.40;99.90;;;;;;5063988;28;20453;-84
2021/12/04 11:54:26;;;;;;;125.57;121.17;;;6.60;99.90;;;;;;5068565;28;20458;-84
2021/12/04 11:57:02;;;;;;;84.50;81.20;;;6.60;99.90;;;;;;5068219;28;20457;-83
2021/12/04 11:59:29;;;;;;;77.70;74.73;;;6.70;99.90;;;;;;5068742;28;20457;-83
2021/12/04 12:01:57;;;;;;;66.73;64.00;;;6.70;99.90;;;;;;5071440;28;20802;-84
2021/12/04 12:04:35;;;;;;;110.73;106.70;;;6.70;99.90;;;;;;5065928;28;20458;-84
2021/12/04 12:07:15;;;;;;;61.80;59.30;;;6.80;99.90;;;;;;5047784;28;20530;-84
2021/12/04 12:09:42;;;;;;;65.13;62.37;;;6.80;99.90;;;;;;5046630;28;20475;-84
2021/12/04 12:12:13;;;;;;;80.17;77.03;;;6.80;99.90;;;;;;5028207;28;20461;-84
2021/12/04 12:14:56;;;;;;;104.07;100.07;;;6.90;99.90;;;;;;5028499;28;20452;-84
2021/12/04 12:17:45;;;;;;;90.77;87.43;;;7.00;99.90;;;;;;5028777;28;20845;-85
2021/12/04 12:20:50;;;;;;;41.93;40.10;;;7.20;99.90;;;;;;5028205;28;20452;-85
2021/12/04 12:23:20;;;;;;;37.57;35.67;;;7.10;98.50;;;;;;5015013;28;20813;-84
2021/12/04 12:26:14;;;;;;;18.40;17.20;;;7.20;99.40;;;;;;5016400;28;20483;-84
2021/12/04 12:32:02;;;;;;;16.10;15.00;;;7.00;98.30;;;;;;5035539;28;20719;-83
2021/12/04 12:37:22;;;;;;;19.47;18.27;;;6.80;98.60;;;;;;5034923;28;20511;-84
2021/12/04 12:39:55;;;;;;;20.63;19.43;;;6.80;98.70;;;;;;5034395;28;20456;-83
2021/12/04 12:42:34;;;;;;;28.97;27.37;;;6.70;98.90;;;;;;5035045;28;20464;-85
2021/12/04 12:45:22;;;;;;;35.97;34.17;;;6.60;99.50;;;;;;5033996;28;20829;-83
2021/12/04 12:47:52;;;;;;;38.83;36.83;;;6.50;99.90;;;;;;5034558;28;20822;-85
2021/12/04 12:50:30;;;;;;;32.50;30.83;;;6.50;99.90;;;;;;5034504;28;20464;-84
2021/12/04 12:53:04;;;;;;;52.17;50.00;;;6.30;99.80;;;;;;5035645;28;20954;-83
2021/12/04 12:55:36;;;;;;;94.87;91.33;;;6.20;99.90;;;;;;5033381;28;20468;-87
2021/12/04 12:58:18;;;;;;;245.07;237.20;;;6.10;99.90;;;;;;5034267;28;20542;-86
2021/12/04 13:11:56;;;;;;;667.67;640.50;;;5.60;99.90;;;;;;5034060;28;20482;-81
2021/12/04 13:14:27;;;;;;;776.57;724.67;;;5.50;99.90;;;;;;5034364;28;20975;-82
2021/12/04 13:17:12;;;;;;;771.80;716.70;;;5.60;99.90;;;;;;5035351;28;20810;-81
2021/12/04 13:19:42;;;;;;;764.80;717.33;;;5.50;99.90;;;;;;5028183;28;20197;-81
2021/12/04 13:22:12;;;;;;;766.57;718.10;;;5.50;99.90;;;;;;5018291;28;20457;-81
2021/12/04 13:24:42;;;;;;;756.53;711.03;;;5.50;99.90;;;;;;5032777;28;20547;-81
2021/12/04 13:29:40;;;;;;;757.63;710.07;;;5.50;99.90;;;;;;5017427;28;20477;-83
2021/12/04 13:32:09;;;;;;;758.03;708.83;;;5.50;99.90;;;;;;5017191;28;20449;-81
2021/12/04 13:34:37;;;;;;;752.03;701.70;;;5.60;99.90;;;;;;5024815;28;20444;-82
2021/12/04 13:37:04;;;;;;;750.30;698.63;;;5.60;99.90;;;;;;5020657;28;20469;-81
2021/12/04 13:39:32;;;;;;;765.93;712.87;;;5.70;99.90;;;;;;5020035;28;20448;-81
2021/12/04 13:42:01;;;;;;;759.23;706.67;;;5.60;99.90;;;;;;5031456;28;20480;-82
2021/12/04 13:44:29;;;;;;;758.37;704.67;;;5.80;99.90;;;;;;5033220;28;20492;-82
2021/12/04 13:47:01;;;;;;;750.30;697.33;;;5.80;99.90;;;;;;5033960;28;20460;-82
2021/12/04 13:49:33;;;;;;;744.20;689.53;;;5.70;99.90;;;;;;5033134;28;20548;-82
2021/12/04 13:52:02;;;;;;;753.33;698.13;;;5.80;99.90;;;;;;5027275;28;20867;-83
2021/12/04 13:54:30;;;;;;;755.17;699.37;;;5.80;99.90;;;;;;5013587;28;20460;-83
2021/12/04 13:56:57;;;;;;;748.60;693.70;;;5.80;99.90;;;;;;5020811;28;20452;-82
2021/12/04 13:59:27;;;;;;;750.70;696.30;;;5.80;99.90;;;;;;5032986;28;20456;-83
2021/12/04 14:01:55;;;;;;;748.30;694.63;;;5.80;99.90;;;;;;5032750;28;20480;-82
2021/12/04 14:04:22;;;;;;;749.73;695.73;;;5.60;99.90;;;;;;5032732;28;20449;-83
2021/12/04 14:06:51;;;;;;;748.00;694.17;;;5.60;99.90;;;;;;5020719;28;20945;-82
2021/12/04 14:09:19;;;;;;;751.80;697.83;;;5.60;99.90;;;;;;5014151;28;20460;-82
2021/12/04 14:11:47;;;;;;;747.13;691.30;;;5.50;99.90;;;;;;5012837;28;20489;-82
2021/12/04 14:14:17;;;;;;;741.07;683.17;;;5.70;99.90;;;;;;5013936;28;20541;-82
2021/12/04 14:16:50;;;;;;;738.57;681.00;;;5.60;99.90;;;;;;5013394;28;20969;-81
2021/12/04 14:19:20;;;;;;;736.10;677.97;;;5.50;99.90;;;;;;5012940;28;20511;-82
2021/12/04 14:21:57;;;;;;;726.23;667.60;;;5.50;99.90;;;;;;5013211;28;20483;-82
2021/12/04 14:24:56;;;;;;;728.13;668.10;;;5.40;99.90;;;;;;5013960;28;20503;-82
2021/12/04 14:27:25;;;;;;;744.20;683.80;;;5.50;99.90;;;;;;5013377;28;20484;-81
2021/12/04 14:29:55;;;;;;;726.03;665.83;;;5.40;99.90;;;;;;5023053;28;20441;-81
2021/12/04 14:32:25;;;;;;;731.13;668.67;;;5.30;99.90;;;;;;5013495;28;20457;-81
2021/12/04 14:34:56;;;;;;;736.33;671.73;;;5.30;99.90;;;;;;5012970;28;20838;-81
2021/12/04 14:37:48;;;;;;;714.17;649.70;;;5.30;99.90;;;;;;5013107;28;20833;-82
2021/12/04 14:40:19;;;;;;;728.47;662.50;;;5.30;99.90;;;;;;5012824;28;20457;-81
2021/12/04 14:42:46;;;;;;;732.10;665.40;;;5.20;99.90;;;;;;5013070;28;20835;-81
2021/12/04 14:45:20;;;;;;;723.63;656.10;;;5.30;99.90;;;;;;5012366;28;20453;-80
2021/12/04 14:47:50;;;;;;;728.40;658.93;;;5.20;99.90;;;;;;5012771;28;21167;-81
2021/12/04 14:50:50;;;;;;;718.50;649.47;;;5.30;99.90;;;;;;5012347;28;20460;-81
2021/12/04 14:53:19;;;;;;;727.43;656.70;;;5.30;99.90;;;;;;5012265;28;20824;-81
2021/12/04 14:55:48;;;;;;;738.30;667.50;;;5.30;99.90;;;;;;5012100;28;20453;-81
2021/12/04 14:58:18;;;;;;;730.20;658.00;;;5.20;99.90;;;;;;5012581;28;20477;-81
2021/12/04 15:00:47;;;;;;;741.70;669.60;;;5.20;99.90;;;;;;5012081;28;20992;-81
2021/12/04 15:03:18;;;;;;;736.97;664.50;;;5.20;99.90;;;;;;5012418;28;20997;-81
2021/12/04 15:05:47;;;;;;;743.63;670.70;;;5.10;99.90;;;;;;5011794;28;20457;-81
2021/12/04 15:08:16;;;;;;;735.07;663.57;;;5.10;99.90;;;;;;5012548;28;20478;-81